Nearby METAR Reports

 

KHVN - New Haven/Tweed, Connecticut, USA
Distance from station: S 9mi, 14km
Updated: 10/21/2018 11:53am
Partly cloudy
Partly cloudy
 Wind from NW
Wind: NW 17 mph , 28 km/h, Gust: 31 mph , 50 km/h
Temperature: 46°F , 8°C
Wind Chill: 39°F , 4°C
Dew Point: 27°F , -3°C
Humidity: 46%
Barometer: 29.89 inHg , 1012.2 hPa
Clouds: Partly cloudy
Visibility: 10 miles , 16 km
Cloud details: Partly cloudy 4400 ft
2018/10/21 15:53 KHVN 211553Z 32015G27KT 10SM SCT044 08/M03 A2989 RMK AO2 PK WND 32029/1551 SLP121 T00831028
KMMK - Meriden, Connecticut, USA
Distance from station: N 9mi, 14km
Updated: 10/21/2018 11:53am
Overcast
Overcast
 Wind from NNW
Wind: NNW 18 mph , 30 km/h, Gust: 32 mph , 52 km/h
Temperature: 45°F , 7°C
Wind Chill: 37°F , 3°C
Dew Point: 27°F , -3°C
Humidity: 49%
Barometer: 29.89 inHg , 1012.2 hPa
Clouds: Overcast
Visibility: 10 miles , 16 km
Cloud details: Overcast 4500 ft
2018/10/21 15:53 KMMK 211553Z AUTO 33016G28KT 10SM OVC045 07/M03 A2989 RMK AO2 PK WND 32028/1547 SLP122 T00721033 $
 
KOXC - Oxford/Waterbury, Connecticut, USA
Distance from station: WNW 15mi, 24km
Updated: 10/21/2018 11:51am
Overcast
Overcast
 Wind from NNW
Wind: NNW 15 mph , 24 km/h, Gust: 28 mph , 44 km/h
Temperature: 41°F , 5°C
Wind Chill: 33°F , 1°C
Dew Point: 27°F , -3°C
Humidity: 57%
Barometer: 29.89 inHg , 1012.2 hPa
Clouds: Overcast
Cloud details: Overcast 3800 ft
2018/10/21 15:51 KOXC 211551Z 33013G24KT 270V340 OVC038 05/M03 A2989 RMK AO2 PK WND 33026/1509 SLP137 T00501033 $
KSNC - Chester, Connecticut, USA
Distance from station: E 19mi, 30km
Updated: 10/21/2018 11:55am
Few Clouds
Few Clouds
 Wind from NW
Wind: NW 18 mph , 30 km/h, Gust: 31 mph , 50 km/h
Temperature: 46°F , 8°C
Wind Chill: 39°F , 4°C
Dew Point: 27°F , -3°C
Humidity: 46%
Barometer: 29.84 inHg , 1010.5 hPa
Clouds: Few Clouds
Visibility: 10 miles , 16 km
Cloud details: Few Clouds 3700 ft
Few Clouds 10000 ft
2018/10/21 15:55 KSNC 211555Z AUTO 32016G27KT 10SM FEW037 FEW100 08/M03 A2984 RMK AO2
 
KBDR - Bridgeport, Connecticut, USA
Distance from station: SW 21mi, 34km
Updated: 10/21/2018 11:52am
Few Clouds
Few Clouds
 Wind from NW
Wind: NW 21 mph , 33 km/h, Gust: 38 mph , 61 km/h
Temperature: 46°F , 8°C
Wind Chill: 38°F , 3°C
Dew Point: 25°F , -4°C
Humidity: 43%
Barometer: 29.90 inHg , 1012.5 hPa
Clouds: Few Clouds
Visibility: 10 miles , 16 km
Cloud details: Few Clouds 4800 ft
2018/10/21 15:52 KBDR 211552Z 32018G33KT 10SM FEW048 08/M04 A2990 RMK AO2 PK WND 34033/1546 SLP123 T00831039
KHFD - Hartford/Brainard, Connecticut, USA
Distance from station: NNE 26mi, 42km
Updated: 10/21/2018 11:53am
Overcast
Overcast
 Wind from NNW
Wind: NNW 17 mph , 28 km/h, Gust: 26 mph , 43 km/h
Temperature: 45°F , 7°C
Wind Chill: 38°F , 3°C
Dew Point: 27°F , -3°C
Humidity: 49%
Barometer: 29.89 inHg , 1012.2 hPa
Clouds: Overcast
Visibility: 10 miles , 16 km
Cloud details: Overcast 4500 ft
2018/10/21 15:53 KHFD 211553Z 33015G23KT 10SM OVC045 07/M03 A2989 RMK AO2 PK WND 33027/1524 SLP120 T00671028
 
KDXR - Danbury, Connecticut, USA
Distance from station: W 32mi, 52km
Updated: 10/21/2018 11:53am
Overcast
Overcast
 Wind from NNW
Wind: NNW 12 mph , 19 km/h, Gust: 18 mph , 30 km/h
Temperature: 43°F , 6°C
Wind Chill: 37°F , 3°C
Dew Point: 27°F , -3°C
Humidity: 53%
Barometer: 29.93 inHg , 1013.5 hPa
Clouds: Overcast
Visibility: 10 miles , 16 km
Cloud details: Overcast 4000 ft
2018/10/21 15:53 KDXR 211553Z 33010G16KT 10SM OVC040 06/M03 A2993 RMK AO2 SLP136 T00561028
KBDL - Windsor Locks, Connecticut, USA
Distance from station: NNE 39mi, 62km
Updated: 10/21/2018 11:51am
Mostly cloudy
Mostly cloudy
 Wind from NNW
Wind: NNW 16 mph , 26 km/h, Gust: 30 mph , 48 km/h
Temperature: 45°F , 7°C
Wind Chill: 38°F , 3°C
Dew Point: 27°F , -3°C
Humidity: 49%
Barometer: 29.88 inHg , 1011.9 hPa
Clouds: Mostly cloudy
Visibility: 10 miles , 16 km
Cloud details: Mostly cloudy 4700 ft
Mostly cloudy 5500 ft
2018/10/21 15:51 KBDL 211551Z 33014G26KT 10SM BKN047 BKN055 07/M03 A2988 RMK AO2 PK WND 31028/1523 SLP118 T00721033